sensor_id;sensor_type;location;lat;lon;timestamp;temperature;humidity
74368;DHT22;64991;41.090;-8.118;2023-04-03T00:01:57;18.50;76.80
74368;DHT22;64991;41.090;-8.118;2023-04-03T00:07:02;18.50;77.00
74368;DHT22;64991;41.090;-8.118;2023-04-03T00:12:05;18.40;76.90
74368;DHT22;64991;41.090;-8.118;2023-04-03T00:17:09;18.50;76.80
74368;DHT22;64991;41.090;-8.118;2023-04-03T00:22:14;18.50;76.90
74368;DHT22;64991;41.090;-8.118;2023-04-03T00:27:17;18.30;76.70
74368;DHT22;64991;41.090;-8.118;2023-04-03T00:32:21;18.50;76.90
74368;DHT22;64991;41.090;-8.118;2023-04-03T00:37:26;18.60;76.40
74368;DHT22;64991;41.090;-8.118;2023-04-03T00:42:29;18.40;76.50
74368;DHT22;64991;41.090;-8.118;2023-04-03T00:47:33;18.40;76.80
74368;DHT22;64991;41.090;-8.118;2023-04-03T00:52:38;18.50;76.50
74368;DHT22;64991;41.090;-8.118;2023-04-03T00:57:42;18.50;76.60
74368;DHT22;64991;41.090;-8.118;2023-04-03T01:02:45;18.50;76.50
74368;DHT22;64991;41.090;-8.118;2023-04-03T01:07:50;18.50;76.40
74368;DHT22;64991;41.090;-8.118;2023-04-03T01:12:54;18.50;76.40
74368;DHT22;64991;41.090;-8.118;2023-04-03T01:17:58;18.50;76.40
74368;DHT22;64991;41.090;-8.118;2023-04-03T01:23:06;18.40;76.20
74368;DHT22;64991;41.090;-8.118;2023-04-03T01:28:18;18.50;76.40
74368;DHT22;64991;41.090;-8.118;2023-04-03T01:33:25;18.50;76.00
74368;DHT22;64991;41.090;-8.118;2023-04-03T01:38:29;18.50;76.00
74368;DHT22;64991;41.090;-8.118;2023-04-03T01:43:32;18.50;76.10
74368;DHT22;64991;41.090;-8.118;2023-04-03T01:48:37;18.50;76.00
74368;DHT22;64991;41.090;-8.118;2023-04-03T01:53:41;18.50;75.80
74368;DHT22;64991;41.090;-8.118;2023-04-03T01:58:44;18.50;76.00
74368;DHT22;64991;41.090;-8.118;2023-04-03T02:03:49;18.50;76.00
74368;DHT22;64991;41.090;-8.118;2023-04-03T02:08:53;18.40;75.80
74368;DHT22;64991;41.090;-8.118;2023-04-03T02:13:56;18.50;76.00
74368;DHT22;64991;41.090;-8.118;2023-04-03T02:19:01;18.40;75.80
74368;DHT22;64991;41.090;-8.118;2023-04-03T02:24:05;18.40;76.00
74368;DHT22;64991;41.090;-8.118;2023-04-03T02:29:08;18.40;75.90
74368;DHT22;64991;41.090;-8.118;2023-04-03T02:34:13;18.50;75.90
74368;DHT22;64991;41.090;-8.118;2023-04-03T02:39:17;18.50;75.80
74368;DHT22;64991;41.090;-8.118;2023-04-03T02:44:20;18.40;75.90
74368;DHT22;64991;41.090;-8.118;2023-04-03T02:49:26;18.50;75.50
74368;DHT22;64991;41.090;-8.118;2023-04-03T02:54:30;18.50;75.60
74368;DHT22;64991;41.090;-8.118;2023-04-03T02:59:33;18.50;75.70
74368;DHT22;64991;41.090;-8.118;2023-04-03T03:04:38;18.40;75.60
74368;DHT22;64991;41.090;-8.118;2023-04-03T03:09:42;18.30;75.60
74368;DHT22;64991;41.090;-8.118;2023-04-03T03:14:45;18.30;75.80
74368;DHT22;64991;41.090;-8.118;2023-04-03T03:19:50;18.40;75.40
74368;DHT22;64991;41.090;-8.118;2023-04-03T03:24:53;18.40;75.40
74368;DHT22;64991;41.090;-8.118;2023-04-03T03:29:57;18.30;75.50
74368;DHT22;64991;41.090;-8.118;2023-04-03T03:35:02;18.40;75.20
74368;DHT22;64991;41.090;-8.118;2023-04-03T03:40:06;18.40;75.40
74368;DHT22;64991;41.090;-8.118;2023-04-03T03:45:11;18.40;75.50
74368;DHT22;64991;41.090;-8.118;2023-04-03T03:50:16;18.20;75.30
74368;DHT22;64991;41.090;-8.118;2023-04-03T03:55:19;18.30;75.10
74368;DHT22;64991;41.090;-8.118;2023-04-03T04:00:23;18.40;75.40
74368;DHT22;64991;41.090;-8.118;2023-04-03T04:05:28;18.20;75.00
74368;DHT22;64991;41.090;-8.118;2023-04-03T04:10:32;18.20;75.00
74368;DHT22;64991;41.090;-8.118;2023-04-03T04:15:36;18.20;75.20
74368;DHT22;64991;41.090;-8.118;2023-04-03T04:20:41;18.40;75.10
74368;DHT22;64991;41.090;-8.118;2023-04-03T04:25:45;18.20;75.10
74368;DHT22;64991;41.090;-8.118;2023-04-03T04:30:48;18.20;74.70
74368;DHT22;64991;41.090;-8.118;2023-04-03T04:35:53;18.30;74.80
74368;DHT22;64991;41.090;-8.118;2023-04-03T04:40:57;18.30;75.00
74368;DHT22;64991;41.090;-8.118;2023-04-03T04:46:01;18.30;74.80
74368;DHT22;64991;41.090;-8.118;2023-04-03T04:51:07;18.40;74.80
74368;DHT22;64991;41.090;-8.118;2023-04-03T04:56:10;18.30;74.50
74368;DHT22;64991;41.090;-8.118;2023-04-03T05:01:14;18.40;74.70
74368;DHT22;64991;41.090;-8.118;2023-04-03T05:06:19;18.20;74.80
74368;DHT22;64991;41.090;-8.118;2023-04-03T05:11:22;18.20;75.00
74368;DHT22;64991;41.090;-8.118;2023-04-03T05:16:27;18.20;74.40
74368;DHT22;64991;41.090;-8.118;2023-04-03T05:21:32;18.20;74.60
74368;DHT22;64991;41.090;-8.118;2023-04-03T05:26:35;18.20;74.30
74368;DHT22;64991;41.090;-8.118;2023-04-03T05:31:39;18.20;74.50
74368;DHT22;64991;41.090;-8.118;2023-04-03T05:36:44;18.10;75.00
74368;DHT22;64991;41.090;-8.118;2023-04-03T05:41:47;18.20;74.40
74368;DHT22;64991;41.090;-8.118;2023-04-03T05:46:51;18.20;74.40
74368;DHT22;64991;41.090;-8.118;2023-04-03T05:51:56;18.20;74.40
74368;DHT22;64991;41.090;-8.118;2023-04-03T05:56:59;18.20;73.90
74368;DHT22;64991;41.090;-8.118;2023-04-03T06:02:03;18.20;74.50
74368;DHT22;64991;41.090;-8.118;2023-04-03T06:07:08;18.20;74.00
74368;DHT22;64991;41.090;-8.118;2023-04-03T06:12:13;18.20;74.00
74368;DHT22;64991;41.090;-8.118;2023-04-03T06:17:17;18.20;74.00
74368;DHT22;64991;41.090;-8.118;2023-04-03T06:22:22;18.20;74.20
74368;DHT22;64991;41.090;-8.118;2023-04-03T06:27:27;18.10;74.70
74368;DHT22;64991;41.090;-8.118;2023-04-03T06:32:31;18.20;73.90
74368;DHT22;64991;41.090;-8.118;2023-04-03T06:37:36;18.20;74.00
74368;DHT22;64991;41.090;-8.118;2023-04-03T06:42:39;18.10;74.40
74368;DHT22;64991;41.090;-8.118;2023-04-03T06:47:43;18.10;74.30
74368;DHT22;64991;41.090;-8.118;2023-04-03T06:52:48;18.10;74.40
74368;DHT22;64991;41.090;-8.118;2023-04-03T06:57:52;18.10;74.00
74368;DHT22;64991;41.090;-8.118;2023-04-03T07:02:55;18.00;73.70
74368;DHT22;64991;41.090;-8.118;2023-04-03T07:08:01;18.10;74.10
74368;DHT22;64991;41.090;-8.118;2023-04-03T07:13:04;18.10;74.00
74368;DHT22;64991;41.090;-8.118;2023-04-03T07:18:07;18.00;73.40
74368;DHT22;64991;41.090;-8.118;2023-04-03T07:23:13;18.00;74.40
74368;DHT22;64991;41.090;-8.118;2023-04-03T07:28:16;18.00;73.50
74368;DHT22;64991;41.090;-8.118;2023-04-03T07:33:21;17.90;73.80
74368;DHT22;64991;41.090;-8.118;2023-04-03T07:38:27;17.90;73.30
74368;DHT22;64991;41.090;-8.118;2023-04-03T07:43:31;18.00;73.60
74368;DHT22;64991;41.090;-8.118;2023-04-03T07:48:36;17.90;73.50
74368;DHT22;64991;41.090;-8.118;2023-04-03T07:53:41;17.90;73.40
74368;DHT22;64991;41.090;-8.118;2023-04-03T07:58:44;17.90;73.50
74368;DHT22;64991;41.090;-8.118;2023-04-03T08:03:48;17.90;73.10
74368;DHT22;64991;41.090;-8.118;2023-04-03T08:08:54;17.90;73.30
74368;DHT22;64991;41.090;-8.118;2023-04-03T08:13:57;18.00;73.00
74368;DHT22;64991;41.090;-8.118;2023-04-03T08:19:01;17.90;73.30
74368;DHT22;64991;41.090;-8.118;2023-04-03T08:24:11;17.90;73.70
74368;DHT22;64991;41.090;-8.118;2023-04-03T08:29:15;17.90;73.50
74368;DHT22;64991;41.090;-8.118;2023-04-03T08:34:18;17.90;73.20
74368;DHT22;64991;41.090;-8.118;2023-04-03T08:39:23;17.90;73.40
74368;DHT22;64991;41.090;-8.118;2023-04-03T08:44:30;17.90;72.90
74368;DHT22;64991;41.090;-8.118;2023-04-03T08:49:41;17.90;73.10
74368;DHT22;64991;41.090;-8.118;2023-04-03T08:54:51;17.90;73.00
74368;DHT22;64991;41.090;-8.118;2023-04-03T08:59:57;17.90;73.30
74368;DHT22;64991;41.090;-8.118;2023-04-03T09:05:05;17.90;73.10
74368;DHT22;64991;41.090;-8.118;2023-04-03T09:10:18;17.90;72.70
74368;DHT22;64991;41.090;-8.118;2023-04-03T09:15:27;17.90;72.50
74368;DHT22;64991;41.090;-8.118;2023-04-03T09:20:42;17.90;72.40
74368;DHT22;64991;41.090;-8.118;2023-04-03T09:25:50;17.90;72.00
74368;DHT22;64991;41.090;-8.118;2023-04-03T09:30:55;17.90;72.30
74368;DHT22;64991;41.090;-8.118;2023-04-03T09:35:58;17.80;72.50
74368;DHT22;64991;41.090;-8.118;2023-04-03T09:41:05;18.00;72.70
74368;DHT22;64991;41.090;-8.118;2023-04-03T09:46:16;17.90;72.30
74368;DHT22;64991;41.090;-8.118;2023-04-03T09:51:24;18.00;72.30
74368;DHT22;64991;41.090;-8.118;2023-04-03T09:56:30;17.90;72.10
74368;DHT22;64991;41.090;-8.118;2023-04-03T10:01:35;18.00;72.30
74368;DHT22;64991;41.090;-8.118;2023-04-03T10:06:39;17.90;72.10
74368;DHT22;64991;41.090;-8.118;2023-04-03T10:12:00;17.90;71.90
74368;DHT22;64991;41.090;-8.118;2023-04-03T10:17:11;17.90;71.80
74368;DHT22;64991;41.090;-8.118;2023-04-03T10:22:20;17.90;72.30
74368;DHT22;64991;41.090;-8.118;2023-04-03T10:27:31;18.00;71.90
74368;DHT22;64991;41.090;-8.118;2023-04-03T10:32:48;17.90;71.30
74368;DHT22;64991;41.090;-8.118;2023-04-03T10:38:00;18.00;71.70
74368;DHT22;64991;41.090;-8.118;2023-04-03T10:43:11;18.00;71.20
74368;DHT22;64991;41.090;-8.118;2023-04-03T10:48:21;17.90;71.40
74368;DHT22;64991;41.090;-8.118;2023-04-03T10:53:34;17.90;71.50
74368;DHT22;64991;41.090;-8.118;2023-04-03T10:58:44;17.90;71.30
74368;DHT22;64991;41.090;-8.118;2023-04-03T11:03:49;18.00;71.50
74368;DHT22;64991;41.090;-8.118;2023-04-03T11:08:55;18.00;71.90
74368;DHT22;64991;41.090;-8.118;2023-04-03T11:14:03;18.00;71.40
74368;DHT22;64991;41.090;-8.118;2023-04-03T11:19:13;18.00;71.60
74368;DHT22;64991;41.090;-8.118;2023-04-03T11:24:24;18.00;71.60
74368;DHT22;64991;41.090;-8.118;2023-04-03T11:29:31;18.00;71.90
74368;DHT22;64991;41.090;-8.118;2023-04-03T11:34:39;18.00;71.60
74368;DHT22;64991;41.090;-8.118;2023-04-03T11:39:47;18.00;72.20
74368;DHT22;64991;41.090;-8.118;2023-04-03T11:50:44;18.00;71.90
74368;DHT22;64991;41.090;-8.118;2023-04-03T11:55:54;18.00;72.10
74368;DHT22;64991;41.090;-8.118;2023-04-03T12:01:05;18.00;72.80
74368;DHT22;64991;41.090;-8.118;2023-04-03T12:12:01;18.00;73.00
74368;DHT22;64991;41.090;-8.118;2023-04-03T12:17:27;18.00;73.00
74368;DHT22;64991;41.090;-8.118;2023-04-03T12:22:31;18.10;73.10
74368;DHT22;64991;41.090;-8.118;2023-04-03T12:27:36;18.00;73.00
74368;DHT22;64991;41.090;-8.118;2023-04-03T12:32:46;18.00;73.30
74368;DHT22;64991;41.090;-8.118;2023-04-03T12:38:31;18.10;73.60
74368;DHT22;64991;41.090;-8.118;2023-04-03T12:43:47;18.10;73.60
74368;DHT22;64991;41.090;-8.118;2023-04-03T12:49:01;18.10;73.70
74368;DHT22;64991;41.090;-8.118;2023-04-03T12:54:12;18.10;74.00
74368;DHT22;64991;41.090;-8.118;2023-04-03T12:59:18;18.00;74.10
74368;DHT22;64991;41.090;-8.118;2023-04-03T13:04:25;18.00;74.10
74368;DHT22;64991;41.090;-8.118;2023-04-03T13:09:30;18.10;74.30
74368;DHT22;64991;41.090;-8.118;2023-04-03T13:14:34;18.00;74.00
74368;DHT22;64991;41.090;-8.118;2023-04-03T13:19:39;18.10;74.60
74368;DHT22;64991;41.090;-8.118;2023-04-03T13:24:43;18.00;71.60
74368;DHT22;64991;41.090;-8.118;2023-04-03T13:29:49;18.10;70.70
74368;DHT22;64991;41.090;-8.118;2023-04-03T13:34:55;18.10;71.60
74368;DHT22;64991;41.090;-8.118;2023-04-03T13:40:16;18.00;73.10
74368;DHT22;64991;41.090;-8.118;2023-04-03T13:45:20;18.00;74.60
74368;DHT22;64991;41.090;-8.118;2023-04-03T13:50:27;18.10;74.40
74368;DHT22;64991;41.090;-8.118;2023-04-03T13:55:32;18.10;74.90
74368;DHT22;64991;41.090;-8.118;2023-04-03T14:00:39;18.10;74.80
74368;DHT22;64991;41.090;-8.118;2023-04-03T14:05:51;18.00;74.90
74368;DHT22;64991;41.090;-8.118;2023-04-03T14:10:55;18.00;75.10
74368;DHT22;64991;41.090;-8.118;2023-04-03T14:15:58;18.00;75.30
74368;DHT22;64991;41.090;-8.118;2023-04-03T14:21:18;18.00;75.20
74368;DHT22;64991;41.090;-8.118;2023-04-03T14:26:23;18.00;75.40
74368;DHT22;64991;41.090;-8.118;2023-04-03T14:31:28;18.00;75.40
74368;DHT22;64991;41.090;-8.118;2023-04-03T14:36:33;18.10;75.60
74368;DHT22;64991;41.090;-8.118;2023-04-03T14:41:37;18.10;75.10
74368;DHT22;64991;41.090;-8.118;2023-04-03T14:46:41;18.10;75.70
74368;DHT22;64991;41.090;-8.118;2023-04-03T14:51:58;18.10;75.60
74368;DHT22;64991;41.090;-8.118;2023-04-03T14:57:02;18.10;75.90
74368;DHT22;64991;41.090;-8.118;2023-04-03T15:02:10;18.00;75.80
74368;DHT22;64991;41.090;-8.118;2023-04-03T15:07:29;18.10;75.60
74368;DHT22;64991;41.090;-8.118;2023-04-03T15:12:34;18.10;75.80
74368;DHT22;64991;41.090;-8.118;2023-04-03T15:17:38;18.10;75.90
74368;DHT22;64991;41.090;-8.118;2023-04-03T15:22:43;18.10;75.80
74368;DHT22;64991;41.090;-8.118;2023-04-03T15:27:46;18.00;75.90
74368;DHT22;64991;41.090;-8.118;2023-04-03T15:32:50;18.10;75.90
74368;DHT22;64991;41.090;-8.118;2023-04-03T15:37:56;18.10;75.80
74368;DHT22;64991;41.090;-8.118;2023-04-03T15:42:59;18.10;75.80
74368;DHT22;64991;41.090;-8.118;2023-04-03T15:48:03;18.10;75.80
74368;DHT22;64991;41.090;-8.118;2023-04-03T15:53:09;18.10;75.90
74368;DHT22;64991;41.090;-8.118;2023-04-03T15:58:13;18.10;76.00
74368;DHT22;64991;41.090;-8.118;2023-04-03T16:03:17;18.10;76.00
74368;DHT22;64991;41.090;-8.118;2023-04-03T16:08:23;18.10;76.00
74368;DHT22;64991;41.090;-8.118;2023-04-03T16:13:27;18.00;75.90
74368;DHT22;64991;41.090;-8.118;2023-04-03T16:18:30;18.00;76.20
74368;DHT22;64991;41.090;-8.118;2023-04-03T16:23:35;18.10;76.00
74368;DHT22;64991;41.090;-8.118;2023-04-03T16:28:39;18.00;76.10
74368;DHT22;64991;41.090;-8.118;2023-04-03T16:33:42;18.10;76.20
74368;DHT22;64991;41.090;-8.118;2023-04-03T16:38:47;18.10;76.30
74368;DHT22;64991;41.090;-8.118;2023-04-03T16:43:50;18.10;76.20
74368;DHT22;64991;41.090;-8.118;2023-04-03T16:48:54;18.10;76.10
74368;DHT22;64991;41.090;-8.118;2023-04-03T16:53:59;18.10;76.50
74368;DHT22;64991;41.090;-8.118;2023-04-03T16:59:02;18.10;76.30
74368;DHT22;64991;41.090;-8.118;2023-04-03T17:04:06;18.00;76.50
74368;DHT22;64991;41.090;-8.118;2023-04-03T17:09:11;18.10;76.40
74368;DHT22;64991;41.090;-8.118;2023-04-03T17:14:15;18.00;76.50
74368;DHT22;64991;41.090;-8.118;2023-04-03T17:19:19;18.00;76.60
74368;DHT22;64991;41.090;-8.118;2023-04-03T17:24:24;18.10;76.50
74368;DHT22;64991;41.090;-8.118;2023-04-03T17:29:28;18.10;76.40
74368;DHT22;64991;41.090;-8.118;2023-04-03T17:34:31;18.10;76.50
74368;DHT22;64991;41.090;-8.118;2023-04-03T17:39:38;18.00;76.70
74368;DHT22;64991;41.090;-8.118;2023-04-03T17:44:42;18.10;76.70
74368;DHT22;64991;41.090;-8.118;2023-04-03T17:49:46;18.10;76.80
74368;DHT22;64991;41.090;-8.118;2023-04-03T17:54:51;18.10;76.60
74368;DHT22;64991;41.090;-8.118;2023-04-03T17:59:54;18.00;76.60
74368;DHT22;64991;41.090;-8.118;2023-04-03T18:04:58;18.10;76.70
74368;DHT22;64991;41.090;-8.118;2023-04-03T18:10:03;18.10;76.80
74368;DHT22;64991;41.090;-8.118;2023-04-03T18:15:09;18.10;76.70
74368;DHT22;64991;41.090;-8.118;2023-04-03T18:20:13;18.00;76.80
74368;DHT22;64991;41.090;-8.118;2023-04-03T18:25:20;18.10;76.90
74368;DHT22;64991;41.090;-8.118;2023-04-03T18:30:23;18.10;76.80
74368;DHT22;64991;41.090;-8.118;2023-04-03T18:35:27;18.20;76.20
74368;DHT22;64991;41.090;-8.118;2023-04-03T18:40:32;18.10;76.90
74368;DHT22;64991;41.090;-8.118;2023-04-03T18:45:36;18.10;76.70
74368;DHT22;64991;41.090;-8.118;2023-04-03T18:50:40;18.10;77.00
74368;DHT22;64991;41.090;-8.118;2023-04-03T18:55:45;18.10;76.80
74368;DHT22;64991;41.090;-8.118;2023-04-03T19:00:49;18.10;76.90
74368;DHT22;64991;41.090;-8.118;2023-04-03T19:05:52;18.10;76.90
74368;DHT22;64991;41.090;-8.118;2023-04-03T19:10:57;18.20;76.50
74368;DHT22;64991;41.090;-8.118;2023-04-03T19:16:01;18.20;76.50
74368;DHT22;64991;41.090;-8.118;2023-04-03T19:21:04;18.10;77.10
74368;DHT22;64991;41.090;-8.118;2023-04-03T19:26:10;18.10;77.30
74368;DHT22;64991;41.090;-8.118;2023-04-03T19:31:15;18.10;77.10
74368;DHT22;64991;41.090;-8.118;2023-04-03T19:36:21;18.10;77.20
74368;DHT22;64991;41.090;-8.118;2023-04-03T19:41:27;18.10;77.00
74368;DHT22;64991;41.090;-8.118;2023-04-03T19:46:33;18.10;77.50
74368;DHT22;64991;41.090;-8.118;2023-04-03T19:51:37;18.10;77.10
74368;DHT22;64991;41.090;-8.118;2023-04-03T19:56:42;18.20;76.70
74368;DHT22;64991;41.090;-8.118;2023-04-03T20:01:46;18.10;77.20
74368;DHT22;64991;41.090;-8.118;2023-04-03T20:06:50;18.10;77.40
74368;DHT22;64991;41.090;-8.118;2023-04-03T20:11:55;18.10;77.10
74368;DHT22;64991;41.090;-8.118;2023-04-03T20:17:00;18.10;77.40
74368;DHT22;64991;41.090;-8.118;2023-04-03T20:22:04;18.10;77.30
74368;DHT22;64991;41.090;-8.118;2023-04-03T20:27:09;18.10;77.40
74368;DHT22;64991;41.090;-8.118;2023-04-03T20:32:12;18.20;76.70
74368;DHT22;64991;41.090;-8.118;2023-04-03T20:37:17;18.10;77.20
74368;DHT22;64991;41.090;-8.118;2023-04-03T20:42:23;18.10;77.20
74368;DHT22;64991;41.090;-8.118;2023-04-03T20:47:26;18.10;77.50
74368;DHT22;64991;41.090;-8.118;2023-04-03T20:52:31;18.10;77.40
74368;DHT22;64991;41.090;-8.118;2023-04-03T20:57:38;18.10;77.40
74368;DHT22;64991;41.090;-8.118;2023-04-03T21:02:43;18.10;77.60
74368;DHT22;64991;41.090;-8.118;2023-04-03T21:19:13;18.10;77.70
74368;DHT22;64991;41.090;-8.118;2023-04-03T21:24:17;18.00;78.00
74368;DHT22;64991;41.090;-8.118;2023-04-03T21:29:20;18.00;78.10
74368;DHT22;64991;41.090;-8.118;2023-04-03T21:34:25;18.00;78.40
74368;DHT22;64991;41.090;-8.118;2023-04-03T21:39:29;18.10;78.30
74368;DHT22;64991;41.090;-8.118;2023-04-03T21:44:33;18.10;78.10
74368;DHT22;64991;41.090;-8.118;2023-04-03T21:49:38;18.00;78.30
74368;DHT22;64991;41.090;-8.118;2023-04-03T21:54:42;18.00;78.40
74368;DHT22;64991;41.090;-8.118;2023-04-03T21:59:45;18.10;78.30
74368;DHT22;64991;41.090;-8.118;2023-04-03T22:04:50;18.10;78.20
74368;DHT22;64991;41.090;-8.118;2023-04-03T22:09:55;18.20;77.80
74368;DHT22;64991;41.090;-8.118;2023-04-03T22:14:58;18.10;78.30
74368;DHT22;64991;41.090;-8.118;2023-04-03T22:20:04;18.10;78.50
74368;DHT22;64991;41.090;-8.118;2023-04-03T22:25:09;18.10;78.40
74368;DHT22;64991;41.090;-8.118;2023-04-03T22:30:13;18.10;78.50
74368;DHT22;64991;41.090;-8.118;2023-04-03T22:35:18;18.10;78.30
74368;DHT22;64991;41.090;-8.118;2023-04-03T22:40:22;18.10;78.60
74368;DHT22;64991;41.090;-8.118;2023-04-03T22:45:25;18.10;78.40
74368;DHT22;64991;41.090;-8.118;2023-04-03T22:50:30;18.20;77.80
74368;DHT22;64991;41.090;-8.118;2023-04-03T22:55:34;18.10;78.50
74368;DHT22;64991;41.090;-8.118;2023-04-03T23:00:38;18.00;78.40
74368;DHT22;64991;41.090;-8.118;2023-04-03T23:05:43;18.10;78.50
74368;DHT22;64991;41.090;-8.118;2023-04-03T23:10:47;18.10;78.40
74368;DHT22;64991;41.090;-8.118;2023-04-03T23:15:53;18.10;78.50
74368;DHT22;64991;41.090;-8.118;2023-04-03T23:20:59;18.10;78.60
74368;DHT22;64991;41.090;-8.118;2023-04-03T23:26:04;18.10;78.50
74368;DHT22;64991;41.090;-8.118;2023-04-03T23:31:10;18.10;78.50
74368;DHT22;64991;41.090;-8.118;2023-04-03T23:36:15;18.10;78.50
74368;DHT22;64991;41.090;-8.118;2023-04-03T23:41:18;18.20;77.90
74368;DHT22;64991;41.090;-8.118;2023-04-03T23:46:22;18.10;78.50
74368;DHT22;64991;41.090;-8.118;2023-04-03T23:51:27;18.20;78.00
74368;DHT22;64991;41.090;-8.118;2023-04-03T23:56:30;18.10;78.50
